This is the latest recevied weather packets stored in our database for station/object KC1TLF-15. If no packets are shown the sender has not sent any weather packets the latest 10 day(s).
| Time | Temp. | Humidity | Pressure | Rain* | Wind** | Luminosity | Snow |
|---|---|---|---|---|---|---|---|
| 1777923070 | 22.78° C | 29% | 1014.7 hPa | 0 mm | 0.45 m/s, 286° | 115 W/m² | - |
| 1777922469 | 22.22° C | 32% | 1014.5 hPa | 0 mm | 0.89 m/s, 331° | - | - |
| 1777921869 | 22.22° C | 32% | 1014.6 hPa | 0 mm | 1.34 m/s, 318° | - | - |
| 1777921270 | 22.22° C | 30% | 1014.8 hPa | 0 mm | 1.34 m/s, 293° | - | - |
| 1777920669 | 22.22° C | 31% | 1014.9 hPa | 0 mm | 1.34 m/s, 276° | - | - |
| 1777920069 | 21.67° C | 30% | 1015.2 hPa | 0 mm | 1.79 m/s, 292° | 258 W/m² | - |
| 1777919471 | 22.22° C | 29% | 1015 hPa | 0 mm | 0.89 m/s, 275° | 324 W/m² | - |
| 1777918871 | 22.22° C | 33% | 1015.3 hPa | 0 mm | 1.34 m/s, 314° | 209 W/m² | - |
| 1777918269 | 22.22° C | 30% | 1015.2 hPa | 0 mm | 0.45 m/s, 298° | 132 W/m² | - |
| 1777917670 | 21.67° C | 31% | 1015.1 hPa | 0 mm | 0.45 m/s, 287° | - | - |
| 1777917070 | 21.11° C | 32% | 1015.2 hPa | 0 mm | 1.34 m/s, 302° | 100 W/m² | - |
| 1777916471 | 21.11° C | 34% | 1015.1 hPa | 0 mm | 0.89 m/s, 259° | - | - |
| 1777915871 | 21.11° C | 31% | 1015.3 hPa | 0 mm | 0.89 m/s, 312° | 157 W/m² | - |
| 1777915269 | 21.11° C | 31% | 1015.3 hPa | 0 mm | 0.89 m/s, 311° | 128 W/m² | - |
| 1777914671 | 21.67° C | 32% | 1015.5 hPa | 0 mm | 1.79 m/s, 285° | 240 W/m² | - |
| 1777914071 | 21.11° C | 35% | 1015.8 hPa | 0 mm | 0.45 m/s, 313° | 361 W/m² | - |
| 1777913470 | 21.11° C | 31% | 1015.6 hPa | 0 mm | 0.45 m/s, 262° | 718 W/m² | - |
| 1777912871 | 20.56° C | 35% | 1015.8 hPa | 0 mm | 0.45 m/s, 335° | 754 W/m² | - |
| 1777912270 | 20.56° C | 33% | 1015.6 hPa | 0 mm | 0.89 m/s, 292° | 754 W/m² | - |
| 1777911670 | 20.56° C | 32% | 1015.7 hPa | 0 mm | 0.89 m/s, 343° | 756 W/m² | - |
| 1777911070 | 20° C | 35% | 1015.9 hPa | 0 mm | 2.68 m/s, 207° | 752 W/m² | - |
| 1777910471 | 20° C | 36% | 1016 hPa | 0 mm | 1.34 m/s, 221° | 749 W/m² | - |
| 1777909871 | 20° C | 36% | 1016.4 hPa | 0 mm | 0.45 m/s, 321° | 742 W/m² | - |
| 1777909270 | 19.44° C | 36% | 1016.7 hPa | 0 mm | 0.89 m/s, 308° | 735 W/m² | - |
| 1777908671 | 19.44° C | 35% | 1016.6 hPa | 0 mm | 0.89 m/s, 289° | 727 W/m² | - |
* Rain latest hour (hover to see other rain measurements)
** Current wind speed in m/s (hover to see current wind gust speed)